.
WxDataArchive / Data Records for 2013-06-10
2013-06-09 June 2013 2013-06-11

Data Records for Monday, 10 June 2013

Time	Temp	Chill	HIndex	Humid	Dewpt	 Wind 	HiWind	WindDir	Rain 	Barom 
-----	----	-----	------	-----	-----	------	------	-------	-----	----- 
00:00	67.6	67.6	67.6	90	64.6	0	2	90	0.00	29.851 
00:05	67.6	67.6	67.6	90	64.6	1	3	90	0.00	29.851 
00:10	67.6	67.6	67.6	90	64.6	1	3	90	0.00	29.851 
00:15	67.6	67.6	67.6	90	64.6	1	4	90	0.00	29.853 
00:20	67.6	67.6	67.6	90	64.6	1	3	90	0.00	29.853 
00:25	67.6	67.6	67.6	90	64.6	1	3	90	0.00	29.853 
00:30	67.8	67.8	67.8	89	64.4	0	2	90	0.00	29.852 
00:35	67.8	67.8	67.8	89	64.4	1	2	90	0.00	29.852 
00:40	67.9	67.9	67.9	89	64.5	0	3	90	0.00	29.852 
00:45	67.9	67.9	67.9	89	64.5	0	2	90	0.00	29.849 
00:50	67.9	67.9	67.9	89	64.5	0	3	90	0.00	29.849 
00:55	67.9	67.9	67.9	88	64.2	0	4	90	0.00	29.849 
01:00	67.9	67.9	67.9	89	64.5	1	3	90	0.00	29.846 
01:05	67.9	67.9	67.9	89	64.5	1	3	90	0.00	29.846 
01:10	67.9	67.9	67.9	89	64.5	0	2	90	0.00	29.846 
01:15	67.8	67.8	67.8	89	64.4	0	3	90	0.00	29.838 
01:20	67.8	67.8	67.8	90	64.8	0	2	90	0.00	29.838 
01:25	67.8	67.8	67.8	90	64.8	0	2	90	0.00	29.838 
01:30	67.8	67.8	67.8	90	64.8	0	2	90	0.00	29.839 
01:35	67.8	67.8	67.8	90	64.8	1	2	90	0.01	29.839 
01:40	67.8	67.8	67.8	91	65.1	0	2	90	0.00	29.839 
01:45	67.6	67.6	67.6	91	64.9	0	2	90	0.00	29.833 
01:50	67.6	67.6	67.6	91	64.9	0	3	90	0.00	29.833 
01:55	67.6	67.6	67.6	92	65.2	0	2	90	0.00	29.833 
02:00	67.4	67.4	67.4	92	65.0	1	3	90	0.00	29.825 
02:05	67.4	67.4	67.4	92	65.0	1	3	90	0.00	29.825 
02:10	67.4	67.4	67.4	92	65.0	0	3	90	0.00	29.825 
02:15	67.4	67.4	67.4	92	65.0	0	2	90	0.00	29.816 
02:20	67.4	67.4	67.4	92	65.0	0	3	90	0.00	29.816 
02:25	67.4	67.4	67.4	92	65.0	0	1	90	0.00	29.816 
02:30	67.4	67.4	67.4	92	65.0	0	2	90	0.00	29.807 
02:35	67.4	67.4	67.4	92	65.0	0	2	90	0.00	29.807 
02:40	67.4	67.4	67.4	92	65.0	0	1	90	0.00	29.807 
02:45	67.4	67.4	67.4	92	65.0	0	3	90	0.00	29.805 
02:50	67.3	67.3	67.3	92	64.9	0	1	90	0.00	29.805 
02:55	67.3	67.3	67.3	93	65.2	0	1	90	0.01	29.805 
03:00	67.3	67.3	67.3	93	65.2	0	1	90	0.00	29.804 
03:05	67.3	67.3	67.3	93	65.2	0	2	90	0.00	29.804 
03:10	67.3	67.3	67.3	93	65.2	0	1	90	0.03	29.804 
03:15	67.3	67.3	67.3	93	65.2	0	1	90	0.02	29.804 
03:20	67.3	67.3	67.3	93	65.2	0	2	90	0.02	29.804 
03:25	67.1	67.1	67.1	93	65.0	0	1	90	0.02	29.804 
03:30	67.1	67.1	67.1	93	65.0	0	2	90	0.05	29.791 
03:35	67.1	67.1	67.1	93	65.0	0	2	90	0.00	29.791 
03:40	67.1	67.1	67.1	93	65.0	0	0	---	0.01	29.791 
03:45	66.9	66.9	66.9	94	65.1	0	2	90	0.00	29.787 
03:50	66.9	66.9	66.9	94	65.1	0	0	---	0.00	29.787 
03:55	66.9	66.9	66.9	94	65.1	0	0	---	0.00	29.787 
04:00	66.9	66.9	66.9	94	65.1	0	0	---	0.00	29.781 
04:05	66.9	66.9	66.9	94	65.1	0	0	---	0.01	29.781 
04:10	66.9	66.9	66.9	94	65.1	0	2	90	0.02	29.781 
04:15	66.9	66.9	66.9	94	65.1	0	0	---	0.00	29.775 
04:20	67.1	67.1	67.1	94	65.3	0	0	---	0.01	29.775 
04:25	67.1	67.1	67.1	94	65.3	0	2	90	0.01	29.775 
04:30	67.1	67.1	67.1	94	65.3	0	0	---	0.00	29.774 
04:35	66.9	66.9	66.9	95	65.4	0	1	90	0.01	29.774 
04:40	66.9	66.9	66.9	95	65.4	0	2	90	0.00	29.774 
04:45	66.9	66.9	66.9	95	65.4	0	0	---	0.01	29.772 
04:50	66.9	66.9	66.9	95	65.4	0	1	90	0.00	29.772 
04:55	66.9	66.9	66.9	95	65.4	0	0	---	0.00	29.772 
05:00	66.8	66.8	66.8	95	65.3	0	1	90	0.00	29.768 
05:05	66.8	66.8	66.8	95	65.3	0	0	---	0.00	29.768 
05:10	66.8	66.8	66.8	95	65.3	0	2	90	0.01	29.768 
05:15	66.8	66.8	66.8	95	65.3	0	0	---	0.00	29.771 
05:20	66.8	66.8	66.8	95	65.3	0	1	90	0.00	29.771 
05:25	66.6	66.6	66.6	95	65.1	0	0	---	0.00	29.771 
05:30	66.6	66.6	66.6	95	65.1	0	1	90	0.01	29.764 
05:35	66.6	66.6	66.6	95	65.1	0	2	90	0.00	29.764 
05:40	66.6	66.6	66.6	95	65.1	0	1	90	0.00	29.764 
05:45	66.6	66.6	66.6	95	65.1	0	1	90	0.00	29.759 
05:50	66.6	66.6	66.6	95	65.1	0	1	90	0.00	29.759 
05:55	66.6	66.6	66.6	95	65.1	0	2	90	0.00	29.759 
06:00	66.4	66.4	66.4	95	64.9	0	2	90	0.00	29.751 
06:05	66.4	66.4	66.4	95	64.9	0	1	90	0.00	29.751 
06:10	66.4	66.4	66.4	95	64.9	0	1	90	0.00	29.751 
06:15	66.4	66.4	66.4	95	64.9	0	2	90	0.00	29.757 
06:20	66.4	66.4	66.4	95	64.9	0	1	90	0.00	29.757 
06:25	66.3	66.3	66.3	95	64.8	0	0	---	0.00	29.757 
06:30	66.3	66.3	66.3	95	64.8	0	2	90	0.00	29.748 
06:35	66.3	66.3	66.3	95	64.8	0	1	90	0.00	29.748 
06:40	66.3	66.3	66.3	95	64.8	0	1	90	0.00	29.748 
06:45	66.3	66.3	66.3	95	64.8	0	1	90	0.00	29.747 
06:50	66.3	66.3	66.3	95	64.8	0	1	90	0.00	29.747 
06:55	66.3	66.3	66.3	95	64.8	0	0	---	0.00	29.747 
07:00	66.3	66.3	66.3	95	64.8	0	1	90	0.00	29.747 
07:05	66.3	66.3	66.3	95	64.8	0	2	90	0.00	29.747 
07:10	66.3	66.3	66.3	95	64.8	0	3	90	0.00	29.747 
07:15	66.3	66.3	66.3	96	65.1	0	1	90	0.00	29.760 
07:20	66.3	66.3	66.3	95	64.8	0	3	90	0.00	29.760 
07:25	66.3	66.3	66.3	95	64.8	0	3	90	0.00	29.760 
07:30	66.1	66.1	66.1	95	64.6	1	3	90	0.00	29.761 
07:35	66.1	66.1	66.1	95	64.6	1	4	90	0.01	29.761 
07:40	65.8	65.8	65.8	95	64.3	1	3	90	0.01	29.761 
07:45	65.5	65.5	65.5	95	64.0	1	3	68	0.01	29.762 
07:50	65.0	65.0	65.0	95	63.5	1	4	292	0.01	29.762 
07:55	64.8	64.8	64.8	95	63.3	0	1	270	0.00	29.762 
08:00	64.7	64.7	64.7	95	63.2	0	2	292	0.01	29.764 
08:05	64.7	64.7	64.7	95	63.2	0	3	292	0.01	29.764 
08:10	64.8	64.8	64.8	95	63.3	0	1	292	0.01	29.764 
08:15	65.0	65.0	65.0	95	63.5	0	1	292	0.01	29.762 
08:20	65.0	65.0	65.0	95	63.5	0	3	45	0.00	29.762 
08:25	65.2	65.2	65.2	95	63.7	0	1	45	0.00	29.762 
08:30	65.0	65.0	65.0	95	63.5	0	2	45	0.00	29.764 
08:35	65.0	65.0	65.0	95	63.5	0	1	45	0.00	29.764 
08:40	65.0	65.0	65.0	95	63.5	0	1	45	0.00	29.764 
08:45	65.0	65.0	65.0	95	63.5	0	0	---	0.00	29.767 
08:50	65.0	65.0	65.0	95	63.5	0	1	45	0.00	29.767 
08:55	65.0	65.0	65.0	95	63.5	0	2	45	0.00	29.767 
09:00	65.0	65.0	65.0	95	63.5	0	1	45	0.01	29.766 
09:05	65.2	65.2	65.2	95	63.7	0	2	45	0.00	29.766 
09:10	65.3	65.3	65.3	95	63.8	0	1	45	0.00	29.766 
09:15	65.3	65.3	65.3	95	63.8	0	2	45	0.00	29.768 
09:20	65.3	65.3	65.3	95	63.8	0	1	45	0.00	29.768 
09:25	65.5	65.5	65.5	95	64.0	0	2	45	0.00	29.768 
09:30	65.5	65.5	65.5	95	64.0	0	1	45	0.00	29.768 
09:35	65.5	65.5	65.5	95	64.0	0	0	---	0.00	29.768 
09:40	65.6	65.6	65.6	95	64.1	0	1	45	0.00	29.768 
09:45	65.6	65.6	65.6	95	64.1	0	1	45	0.00	29.766 
09:50	65.6	65.6	65.6	95	64.1	0	1	45	0.00	29.766 
09:55	65.8	65.8	65.8	96	64.6	0	1	45	0.00	29.766 
10:00	66.0	66.0	66.0	96	64.8	0	1	45	0.00	29.764 
10:05	66.0	66.0	66.0	96	64.8	0	1	45	0.00	29.764 
10:10	65.8	65.8	65.8	96	64.6	0	1	45	0.00	29.764 
10:15	65.8	65.8	65.8	96	64.6	0	0	---	0.00	29.764 
10:20	65.8	65.8	65.8	95	64.3	0	2	202	0.00	29.764 
10:25	65.8	65.8	65.8	95	64.3	0	2	202	0.00	29.764 
10:30	66.0	66.0	66.0	96	64.8	0	1	202	0.00	29.756 
10:35	66.3	66.3	66.3	96	65.1	0	1	202	0.00	29.756 
10:40	66.3	66.3	66.3	96	65.1	0	1	202	0.00	29.756 
10:45	66.4	66.4	66.4	96	65.2	0	1	202	0.00	29.756 
10:50	66.4	66.4	66.4	95	64.9	0	2	225	0.00	29.756 
10:55	66.3	66.3	66.3	95	64.8	0	2	225	0.00	29.756 
11:00	66.3	66.3	66.3	95	64.8	0	2	225	0.00	29.765 
11:05	66.4	66.4	66.4	95	64.9	0	1	112	0.00	29.765 
11:10	66.8	66.8	66.8	95	65.3	0	1	112	0.00	29.765 
11:15	67.1	67.1	67.1	95	65.6	0	2	112	0.00	29.758 
11:20	67.4	67.4	67.4	95	65.9	0	2	112	0.00	29.758 
11:25	67.4	67.4	67.4	95	65.9	0	1	112	0.00	29.758 
11:30	67.4	67.4	67.4	95	65.9	0	1	112	0.00	29.762 
11:35	67.4	67.4	67.4	95	65.9	0	1	112	0.00	29.762 
11:40	67.4	67.4	67.4	95	65.9	0	1	112	0.00	29.762 
11:45	67.6	67.6	67.6	94	65.8	0	2	112	0.00	29.755 
11:50	68.4	68.4	68.4	95	66.9	0	3	112	0.00	29.755 
11:55	68.8	68.8	68.8	93	66.7	1	5	270	0.00	29.755 
12:00	68.8	68.8	68.8	92	66.4	0	3	270	0.00	29.761 
12:05	68.9	68.9	68.9	92	66.5	1	3	270	0.00	29.761 
12:10	69.1	69.1	69.1	90	66.0	0	2	270	0.00	29.761 
12:15	69.6	69.6	69.6	89	66.2	0	2	270	0.00	29.763 
12:20	70.4	70.4	70.4	89	67.0	0	2	270	0.00	29.763 
12:25	70.9	70.9	70.9	86	66.5	0	2	270	0.00	29.763 
12:30	71.3	71.3	71.3	83	65.9	1	3	270	0.00	29.764 
12:35	71.5	71.5	71.5	81	65.4	0	2	270	0.00	29.764 
12:40	71.1	71.1	71.1	79	64.2	1	2	270	0.00	29.764 
12:45	70.9	70.9	70.9	79	64.1	0	1	270	0.00	29.764 
12:50	71.1	71.1	71.1	79	64.2	0	3	270	0.00	29.764 
12:55	71.5	71.5	71.5	78	64.3	0	2	270	0.00	29.764 
13:00	71.8	71.8	71.8	78	64.6	1	3	270	0.00	29.752 
13:05	72.7	72.7	72.7	75	64.3	1	3	270	0.00	29.752 
13:10	73.2	73.2	73.2	70	62.8	2	4	292	0.00	29.752 
13:15	73.9	73.9	73.9	71	63.9	1	5	292	0.00	29.749 
13:20	75.1	75.1	76.9	69	64.2	1	4	338	0.00	29.749 
13:25	75.8	75.8	77.5	69	64.9	1	3	338	0.00	29.749 
13:30	76.1	76.1	78.0	65	63.5	1	3	338	0.00	29.742 
13:35	76.0	76.0	77.8	66	63.8	1	3	338	0.00	29.742 
13:40	76.0	76.0	77.8	67	64.2	0	1	338	0.00	29.742 
13:45	76.3	76.3	78.2	63	62.8	1	3	338	0.00	29.739 
13:50	76.0	76.0	77.9	63	62.5	1	4	338	0.00	29.739 
13:55	75.8	75.8	77.8	62	61.8	1	4	315	0.00	29.739 
14:00	75.8	75.8	77.8	63	62.3	1	4	315	0.00	29.734 
14:05	76.1	76.1	78.0	62	62.1	1	3	270	0.00	29.734 
14:10	75.8	75.8	77.8	62	61.8	2	4	292	0.00	29.734 
14:15	75.4	75.4	77.6	60	60.5	2	5	292	0.00	29.738 
14:20	75.8	75.8	77.9	60	60.9	3	7	270	0.00	29.738 
14:25	76.3	76.3	78.2	60	61.4	2	5	270	0.00	29.738 
14:30	76.5	76.5	78.4	60	61.6	2	5	270	0.00	29.732 
14:35	77.0	77.0	78.7	57	60.6	3	6	292	0.00	29.732 
14:40	77.6	77.6	79.2	55	60.1	2	4	292	0.00	29.732 
14:45	77.7	77.7	79.2	55	60.2	2	5	292	0.00	29.729 
14:50	78.3	78.3	79.7	54	60.3	1	5	292	0.00	29.729 
14:55	78.3	78.3	79.7	55	60.8	2	4	292	0.00	29.729 
15:00	78.3	78.3	79.7	54	60.3	2	7	292	0.00	29.719 
15:05	78.1	78.1	79.5	54	60.1	2	7	270	0.00	29.719 
15:10	78.1	78.1	79.5	54	60.1	3	6	270	0.00	29.719 
15:15	77.7	77.7	79.3	56	60.7	1	4	270	0.00	29.722 
15:20	78.5	78.5	79.9	56	61.5	1	3	270	0.00	29.722 
15:25	78.8	78.8	80.1	54	60.7	1	4	270	0.00	29.722 
15:30	79.0	79.0	80.2	53	60.4	3	5	270	0.00	29.718 
15:35	78.8	78.8	80.1	54	60.7	1	5	270	0.00	29.718 
15:40	78.6	78.6	79.9	54	60.5	2	6	270	0.00	29.718 
15:45	78.8	78.8	80.2	56	61.8	1	4	270	0.00	29.719 
15:50	78.5	78.5	79.6	51	58.8	3	6	270	0.00	29.719 
15:55	77.7	77.7	79.2	53	59.2	2	4	270	0.00	29.719 
16:00	77.2	77.2	78.8	54	59.2	2	6	270	0.00	29.724 
16:05	77.0	77.0	78.7	57	60.6	1	3	315	0.00	29.724 
16:10	77.7	77.7	79.3	56	60.7	1	4	270	0.00	29.724 
16:15	78.3	78.3	79.8	56	61.3	2	5	270	0.00	29.721 
16:20	78.8	78.8	80.1	54	60.7	2	5	270	0.00	29.721 
16:25	79.2	79.2	80.4	54	61.1	2	4	270	0.00	29.721 
16:30	79.6	79.6	80.8	54	61.5	1	4	270	0.00	29.714 
16:35	79.8	79.8	81.0	54	61.7	1	4	270	0.00	29.714 
16:40	79.6	79.6	80.6	52	60.4	3	6	292	0.00	29.714 
16:45	79.4	79.4	80.3	50	59.1	2	6	270	0.00	29.714 
16:50	79.2	79.2	80.4	53	60.6	2	5	270	0.00	29.714 
16:55	79.6	79.6	80.9	55	62.0	1	5	270	0.00	29.714 
17:00	79.9	79.9	80.7	50	59.6	3	6	270	0.00	29.714 
17:05	79.4	79.4	80.5	52	60.2	2	5	270	0.00	29.714 
17:10	78.8	78.8	80.1	54	60.7	2	6	270	0.00	29.714 
17:15	79.4	79.4	80.5	52	60.2	2	9	270	0.00	29.710 
17:20	79.2	79.2	80.3	52	60.0	3	9	270	0.00	29.710 
17:25	79.2	79.2	80.4	53	60.6	1	3	270	0.00	29.710 
17:30	79.2	79.2	80.4	53	60.6	2	4	292	0.00	29.707 
17:35	79.0	79.0	80.3	54	60.9	1	4	292	0.00	29.707 
17:40	78.6	78.6	79.9	54	60.5	2	6	292	0.00	29.707 
17:45	79.0	79.0	80.4	56	61.9	2	5	270	0.00	29.711 
17:50	79.2	79.2	80.4	54	61.1	2	5	270	0.00	29.711 
17:55	78.3	78.3	79.7	54	60.3	3	7	270	0.00	29.711 
18:00	77.7	77.7	79.2	54	59.7	2	5	270	0.00	29.712 
18:05	77.6	77.6	79.1	54	59.6	2	9	270	0.00	29.712 
18:10	77.2	77.2	78.9	55	59.8	3	6	292	0.00	29.712 
18:15	76.5	76.5	78.4	58	60.6	4	7	292	0.00	29.720 
18:20	75.4	75.4	77.5	62	61.5	4	7	270	0.00	29.720 
18:25	74.7	74.7	74.7	63	61.2	4	9	315	0.00	29.720 
18:30	74.2	74.2	74.2	64	61.2	4	6	315	0.00	29.730 
18:35	73.9	73.9	73.9	65	61.4	3	6	315	0.00	29.730 
18:40	73.5	73.5	73.5	65	61.0	2	7	315	0.00	29.730 
18:45	73.2	73.2	73.2	65	60.7	2	5	292	0.00	29.735 
18:50	73.2	73.2	73.2	66	61.1	2	7	315	0.00	29.735 
18:55	72.8	72.8	72.8	67	61.2	2	5	270	0.00	29.735 
19:00	72.7	72.7	72.7	67	61.1	2	4	292	0.00	29.745 
19:05	72.5	72.5	72.5	68	61.3	2	7	270	0.00	29.745 
19:10	72.3	72.3	72.3	69	61.5	2	4	270	0.00	29.745 
19:15	72.1	72.1	72.1	70	61.8	1	3	270	0.00	29.750 
19:20	71.8	71.8	71.8	71	61.9	1	4	270	0.00	29.750 
19:25	71.6	71.6	71.6	72	62.1	2	5	270	0.00	29.750 
19:30	71.6	71.6	71.6	72	62.1	1	3	270	0.00	29.751 
19:35	71.6	71.6	71.6	72	62.1	1	4	270	0.00	29.751 
19:40	71.8	71.8	71.8	72	62.3	1	3	315	0.00	29.751 
19:45	71.8	71.8	71.8	72	62.3	2	4	292	0.00	29.752 
19:50	71.8	71.8	71.8	72	62.3	3	5	292	0.00	29.752 
19:55	71.6	71.6	71.6	73	62.5	2	4	292	0.00	29.752 
20:00	71.5	71.5	71.5	73	62.4	2	3	292	0.00	29.750 
20:05	71.5	71.5	71.5	74	62.8	2	4	292	0.00	29.750 
20:10	71.5	71.5	71.5	74	62.8	1	4	292	0.00	29.750 
20:15	71.5	71.5	71.5	74	62.8	1	2	292	0.00	29.745 
20:20	71.3	71.3	71.3	74	62.6	1	4	292	0.00	29.745 
20:25	71.3	71.3	71.3	74	62.6	1	2	292	0.00	29.745 
20:30	71.3	71.3	71.3	74	62.6	2	4	270	0.00	29.746 
20:35	71.3	71.3	71.3	74	62.6	2	4	270	0.00	29.746 
20:40	71.3	71.3	71.3	74	62.6	1	4	270	0.00	29.746 
20:45	71.1	71.1	71.1	74	62.4	1	3	292	0.00	29.748 
20:50	70.9	70.9	70.9	75	62.6	0	1	292	0.00	29.748 
20:55	70.9	70.9	70.9	75	62.6	1	2	292	0.00	29.748 
21:00	70.8	70.8	70.8	76	62.8	0	2	292	0.00	29.751 
21:05	70.6	70.6	70.6	76	62.7	0	1	292	0.00	29.751 
21:10	70.4	70.4	70.4	77	62.8	0	1	292	0.00	29.751 
21:15	70.4	70.4	70.4	77	62.8	0	0	---	0.00	29.751 
21:20	70.3	70.3	70.3	77	62.7	0	1	292	0.00	29.751 
21:25	70.1	70.1	70.1	78	62.9	0	1	292	0.00	29.751 
21:30	69.9	69.9	69.9	78	62.7	0	1	292	0.00	29.754 
21:35	69.9	69.9	69.9	79	63.1	0	1	292	0.00	29.754 
21:40	69.8	69.8	69.8	79	63.0	0	0	---	0.00	29.754 
21:45	69.6	69.6	69.6	79	62.8	0	1	292	0.00	29.759 
21:50	69.4	69.4	69.4	80	63.0	0	1	292	0.00	29.759 
21:55	69.4	69.4	69.4	81	63.3	0	1	292	0.00	29.759 
22:00	69.3	69.3	69.3	81	63.2	0	1	292	0.00	29.769 
22:05	69.3	69.3	69.3	81	63.2	0	1	292	0.00	29.769 
22:10	69.3	69.3	69.3	81	63.2	0	1	292	0.00	29.769 
22:15	69.1	69.1	69.1	82	63.4	0	0	---	0.00	29.771 
22:20	69.1	69.1	69.1	82	63.4	0	1	292	0.00	29.771 
22:25	68.9	68.9	68.9	82	63.2	0	0	---	0.00	29.771 
22:30	68.8	68.8	68.8	83	63.4	0	0	---	0.00	29.777 
22:35	68.6	68.6	68.6	83	63.2	0	0	---	0.00	29.777 
22:40	68.4	68.4	68.4	83	63.0	0	0	---	0.00	29.777 
22:45	68.3	68.3	68.3	84	63.3	0	0	---	0.00	29.785 
22:50	68.3	68.3	68.3	84	63.3	0	0	---	0.00	29.785 
22:55	68.1	68.1	68.1	84	63.1	0	1	292	0.00	29.785 
23:00	68.1	68.1	68.1	85	63.4	0	1	292	0.00	29.787 
23:05	68.1	68.1	68.1	85	63.4	0	1	292	0.00	29.787 
23:10	67.9	67.9	67.9	85	63.2	0	1	292	0.00	29.787 
23:15	67.9	67.9	67.9	86	63.5	0	1	292	0.00	29.785 
23:20	67.8	67.8	67.8	86	63.5	0	1	292	0.00	29.785 
23:25	67.8	67.8	67.8	87	63.8	0	1	292	0.00	29.785 
23:30	67.8	67.8	67.8	87	63.8	1	4	292	0.00	29.791 
23:35	67.8	67.8	67.8	87	63.8	1	3	292	0.00	29.791 
23:40	67.6	67.6	67.6	87	63.6	1	4	292	0.00	29.791 
23:45	67.6	67.6	67.6	87	63.6	1	3	292	0.00	29.796 
23:50	67.4	67.4	67.4	87	63.4	1	3	292	0.00	29.796 
23:55	67.4	67.4	67.4	87	63.4	0	3	292	0.00	29.796 

CoCoRaHS
IN-AL-39
A2 Web Hosting
Creative Commons License
GoDaddy
search engine by freefind advanced

loaded 2018-11-17 22:27:43 • last modified 2010-11-18 10:43:29
Privacy PolicyDisclaimer
• wx.awcolley.com is powered by PmWiki v.2002016 •
• all content (unless otherwise noted) © 2018 A W Colley